createdAt,value
2018-11-06T00:00:12.138Z,46.08
2018-11-06T00:01:13.670Z,46.26
2018-11-06T00:02:14.037Z,46.08
2018-11-06T00:03:15.114Z,46.36
2018-11-06T00:04:15.635Z,46.17
2018-11-06T00:05:16.992Z,46.46
2018-11-06T00:06:18.070Z,46.26
2018-11-06T00:07:18.870Z,46.08
2018-11-06T00:08:20.420Z,46.55
2018-11-06T00:09:21.783Z,46.55
2018-11-06T00:10:21.573Z,46.94
2018-11-06T00:11:22.549Z,46.84
2018-11-06T00:12:23.624Z,46.75
2018-11-06T00:13:24.427Z,46.65
2018-11-06T00:14:25.503Z,46.65
2018-11-06T00:15:27.033Z,46.26
2018-11-06T00:16:27.557Z,46.26
2018-11-06T00:17:28.912Z,46.26
2018-11-06T00:18:29.267Z,45.98
2018-11-06T00:19:29.787Z,46.17
2018-11-06T00:20:30.597Z,46.29
2018-11-06T00:21:31.425Z,46.08
2018-11-06T00:22:32.500Z,46.46
2018-11-06T00:23:33.306Z,46.46
2018-11-06T00:24:33.667Z,46.46
2018-11-06T00:25:34.187Z,46.55
2018-11-06T00:26:34.987Z,46.08
2018-11-06T00:27:35.346Z,46.08
2018-11-06T00:28:35.863Z,46.08
2018-11-06T00:29:36.938Z,46.08
2018-11-06T00:30:38.293Z,46.65
2018-11-06T00:31:39.265Z,46.94
2018-11-06T00:32:40.063Z,46.36
2018-11-06T00:33:41.144Z,46.08
2018-11-06T00:34:41.663Z,46.17
2018-11-06T00:35:42.183Z,45.98
2018-11-06T00:36:43.264Z,46.36
2018-11-06T00:37:44.901Z,46.17
2018-11-06T00:38:45.420Z,46.17
2018-11-06T00:39:46.942Z,46.26
2018-11-06T00:40:47.575Z,46.36
2018-11-06T00:41:47.857Z,45.98
2018-11-06T00:42:48.377Z,46.26
2018-11-06T00:43:49.460Z,46.65
2018-11-06T00:44:50.705Z,46.75
2018-11-06T00:45:51.780Z,46.94
2018-11-06T00:46:52.136Z,46.75
2018-11-06T00:47:52.767Z,47.03
2018-11-06T00:48:53.121Z,47.13
2018-11-06T00:49:53.923Z,47.03
2018-11-06T00:50:54.450Z,47.42
2018-11-06T00:51:55.284Z,47.51
2018-11-06T00:52:56.086Z,47.03
2018-11-06T00:53:57.161Z,47.13
2018-11-06T00:54:58.236Z,47.51
2018-11-06T00:55:58.872Z,47.58
2018-11-06T00:56:59.672Z,47.39
2018-11-06T00:58:01.026Z,47.58
2018-11-06T00:59:02.386Z,47.58
2018-11-06T01:00:02.909Z,47.49
2018-11-06T01:01:04.427Z,47.39
2018-11-06T01:02:05.540Z,47.61
2018-11-06T01:03:06.170Z,47.11
2018-11-06T01:04:06.695Z,47.2
2018-11-06T01:05:07.492Z,47.39
2018-11-06T01:06:08.136Z,47.01
2018-11-06T01:07:09.213Z,47.39
2018-11-06T01:08:09.879Z,47.61
2018-11-06T01:09:10.955Z,47.03
2018-11-06T01:10:11.752Z,47.51
2018-11-06T01:11:12.275Z,47.22
2018-11-06T01:12:13.297Z,47.22
2018-11-06T01:13:14.819Z,47.39
2018-11-06T01:14:15.173Z,47.32
2018-11-06T01:15:16.256Z,47.13
2018-11-06T01:16:16.775Z,47.03
2018-11-06T01:17:17.687Z,47.03
2018-11-06T01:18:18.206Z,47.32
2018-11-06T01:19:18.726Z,47.32
2018-11-06T01:20:19.810Z,47.03
2018-11-06T01:21:20.891Z,46.94
2018-11-06T01:22:22.143Z,46.75
2018-11-06T01:23:23.223Z,46.84
2018-11-06T01:24:23.744Z,46.94
2018-11-06T01:25:24.545Z,46.94
2018-11-06T01:26:25.349Z,46.84
2018-11-06T01:27:25.979Z,46.94
2018-11-06T01:28:26.058Z,46.84
2018-11-06T01:29:27.134Z,46.65
2018-11-06T01:30:27.934Z,46.65
2018-11-06T01:31:29.010Z,46.55
2018-11-06T01:32:30.284Z,46.46
2018-11-06T01:33:31.368Z,46.55
2018-11-06T01:34:31.890Z,46.36
2018-11-06T01:35:32.690Z,46.17
2018-11-06T01:36:33.494Z,45.98
2018-11-06T01:37:34.850Z,46.26
2018-11-06T01:38:35.647Z,45.98
2018-11-06T01:39:36.000Z,46.36
2018-11-06T01:40:36.357Z,46.17
2018-11-06T01:41:36.712Z,46.26
2018-11-06T01:42:37.687Z,46.26
2018-11-06T01:43:38.208Z,46.26
2018-11-06T01:44:38.730Z,46.08
2018-11-06T01:45:39.531Z,46.36
2018-11-06T01:46:40.342Z,46.08
2018-11-06T01:47:40.864Z,46.08
2018-11-06T01:48:40.940Z,45.98
2018-11-06T01:49:41.459Z,46.26
2018-11-06T01:50:42.544Z,46.55
2018-11-06T01:51:42.892Z,46.55
2018-11-06T01:52:43.980Z,46.84
2018-11-06T01:53:43.778Z,47.13
2018-11-06T01:54:44.298Z,46.94
2018-11-06T01:55:45.096Z,46.94
2018-11-06T01:56:45.616Z,47.03
2018-11-06T01:57:46.976Z,46.84
2018-11-06T01:58:48.064Z,46.46
2018-11-06T01:59:49.420Z,46.65
2018-11-06T02:00:50.218Z,46.75
2018-11-06T02:01:51.572Z,46.75
2018-11-06T02:02:52.546Z,46.94
2018-11-06T02:03:53.345Z,46.84
2018-11-06T02:04:53.867Z,47.03
2018-11-06T02:05:55.110Z,47.22
2018-11-06T02:06:56.460Z,47.51
2018-11-06T02:07:56.702Z,47.71
2018-11-06T02:08:57.621Z,47.32
2018-11-06T02:09:57.699Z,47.71
2018-11-06T02:10:57.774Z,47.8
2018-11-06T02:11:58.571Z,47.32
2018-11-06T02:12:58.990Z,47.61
2018-11-06T02:13:59.508Z,47.22
2018-11-06T02:15:00.871Z,47.51
2018-11-06T02:16:01.949Z,47.61
2018-11-06T02:17:02.472Z,47.42
2018-11-06T02:18:04.552Z,47.51
2018-11-06T02:19:05.073Z,47.13
2018-11-06T02:20:05.600Z,47.42
2018-11-06T02:21:07.119Z,47.61
2018-11-06T02:22:08.475Z,47.42
2018-11-06T02:23:09.288Z,47.42
2018-11-06T02:24:09.531Z,47.99
2018-11-06T02:25:11.054Z,47.42
2018-11-06T02:26:11.855Z,47.32
2018-11-06T02:27:12.669Z,47.51
2018-11-06T02:28:13.193Z,47.8
2018-11-06T02:29:13.990Z,47.8
2018-11-06T02:30:15.078Z,47.99
2018-11-06T02:31:16.001Z,48.28
2018-11-06T02:32:17.223Z,47.89
2018-11-06T02:33:18.530Z,48.18
2018-11-06T02:34:19.885Z,48.09
2018-11-06T02:35:21.253Z,48.28
2018-11-06T02:36:21.606Z,48.09
2018-11-06T02:37:22.425Z,48.66
2018-11-06T02:38:23.504Z,48.18
2018-11-06T02:39:24.304Z,48.28
2018-11-06T02:40:25.106Z,48.38
2018-11-06T02:41:26.744Z,47.99
2018-11-06T02:42:27.667Z,48.28
2018-11-06T02:43:27.783Z,48.18
2018-11-06T02:44:28.583Z,48.47
2018-11-06T02:45:29.498Z,48.75
2018-11-06T02:46:30.301Z,48.64
2018-11-06T02:47:31.110Z,48.57
2018-11-06T02:48:31.464Z,49.31
2018-11-06T02:49:32.552Z,49.4
2018-11-06T02:50:33.350Z,49.5
2018-11-06T02:51:33.982Z,48.44
2018-11-06T02:52:34.339Z,48.66
2018-11-06T02:53:35.615Z,48.25
2018-11-06T02:54:36.250Z,48.18
2018-11-06T02:55:37.097Z,47.89
2018-11-06T02:56:38.139Z,48.38
2018-11-06T02:57:38.781Z,48.28
2018-11-06T02:58:39.864Z,48.66
2018-11-06T02:59:40.775Z,48.95
2018-11-06T03:00:41.963Z,48.75
2018-11-06T03:01:42.044Z,48.66
2018-11-06T03:02:42.680Z,48.28
2018-11-06T03:03:43.207Z,48.18
2018-11-06T03:04:44.286Z,48.18
2018-11-06T03:05:45.227Z,48.38
2018-11-06T03:06:45.857Z,48.18
2018-11-06T03:07:46.657Z,48.38
2018-11-06T03:08:47.740Z,48.38
2018-11-06T03:09:48.093Z,48.47
2018-11-06T03:10:49.005Z,47.99
2018-11-06T03:11:49.925Z,48.75
2018-11-06T03:12:50.451Z,48.18
2018-11-06T03:13:51.573Z,48.57
2018-11-06T03:14:52.982Z,48.75
2018-11-06T03:15:54.343Z,48.57
2018-11-06T03:16:55.437Z,48.66
2018-11-06T03:17:56.321Z,47.8
2018-11-06T03:18:57.677Z,48.38
2018-11-06T03:19:59.042Z,48.28
2018-11-06T03:21:00.843Z,48.38
2018-11-06T03:22:02.114Z,48.38
2018-11-06T03:23:02.913Z,48.47
2018-11-06T03:24:03.916Z,48.38
2018-11-06T03:25:04.991Z,48.38
2018-11-06T03:26:05.794Z,48.18
2018-11-06T03:27:07.543Z,48.38
2018-11-06T03:28:07.916Z,48.28
2018-11-06T03:29:08.987Z,48.28
2018-11-06T03:30:09.345Z,48.57
2018-11-06T03:31:10.881Z,48.57
2018-11-06T03:32:11.792Z,48.38
2018-11-06T03:33:12.704Z,48.47
2018-11-06T03:34:13.800Z,48.38
2018-11-06T03:35:14.917Z,48.09
2018-11-06T03:36:15.995Z,48.38
2018-11-06T03:37:16.795Z,48.28
2018-11-06T03:38:18.160Z,48.47
2018-11-06T03:39:18.963Z,47.99
2018-11-06T03:40:20.613Z,48.38
2018-11-06T03:41:21.697Z,48.38
2018-11-06T03:42:22.609Z,48.38
2018-11-06T03:43:22.408Z,48.28
2018-11-06T03:44:23.328Z,48.28
2018-11-06T03:45:24.124Z,48.66
2018-11-06T03:46:24.924Z,48.09
2018-11-06T03:47:25.999Z,48.28
2018-11-06T03:48:27.076Z,48.28
2018-11-06T03:49:27.439Z,48.28
2018-11-06T03:50:28.631Z,48.18
2018-11-06T03:51:28.984Z,47.71
2018-11-06T03:52:30.638Z,48.18
2018-11-06T03:53:30.712Z,47.99
2018-11-06T03:54:31.519Z,47.89
2018-11-06T03:55:31.881Z,48.28
2018-11-06T03:56:32.959Z,48.09
2018-11-06T03:57:33.317Z,48.47
2018-11-06T03:58:34.390Z,48.09
2018-11-06T03:59:34.742Z,47.99
2018-11-06T04:00:36.452Z,48.18
2018-11-06T04:01:36.531Z,48.18
2018-11-06T04:02:37.613Z,48.28
2018-11-06T04:03:37.691Z,48.47
2018-11-06T04:04:38.662Z,48.75
2018-11-06T04:05:40.017Z,48.85
2018-11-06T04:06:40.100Z,48.47
2018-11-06T04:07:40.897Z,49.43
2018-11-06T04:08:42.252Z,49.43
2018-11-06T04:09:43.339Z,49.33
2018-11-06T04:10:44.975Z,49.24
2018-11-06T04:11:46.334Z,49.71
2018-11-06T04:12:46.135Z,49.24
2018-11-06T04:13:46.493Z,49.33
2018-11-06T04:14:48.469Z,49.33
2018-11-06T04:15:48.545Z,49.05
2018-11-06T04:16:49.351Z,49.71
2018-11-06T04:17:50.432Z,49.62
2018-11-06T04:18:50.819Z,49.43
2018-11-06T04:19:51.617Z,49.05
2018-11-06T04:20:52.704Z,49.14
2018-11-06T04:21:53.334Z,49.71
2018-11-06T04:22:54.132Z,49.14
2018-11-06T04:23:55.211Z,49.43
2018-11-06T04:24:56.330Z,49.43
2018-11-06T04:25:57.127Z,49.71
2018-11-06T04:26:57.927Z,49.52
2018-11-06T04:27:59.283Z,49.81
2018-11-06T04:29:00.085Z,49.81
2018-11-06T04:30:01.441Z,49.6
2018-11-06T04:31:01.806Z,49.91
2018-11-06T04:32:02.328Z,49.91
2018-11-06T04:33:02.684Z,49.71
2018-11-06T04:34:03.930Z,49.81
2018-11-06T04:35:04.738Z,49.91
2018-11-06T04:36:06.102Z,49.88
2018-11-06T04:37:06.745Z,50.36
2018-11-06T04:38:07.820Z,50.56
2018-11-06T04:39:08.341Z,50.56
2018-11-06T04:40:09.140Z,50.74
2018-11-06T04:41:09.493Z,50.56
2018-11-06T04:42:09.860Z,50.84
2018-11-06T04:43:10.543Z,50.74
2018-11-06T04:44:11.344Z,50.46
2018-11-06T04:45:12.151Z,50.36
2018-11-06T04:46:13.510Z,50.93
2018-11-06T04:47:14.586Z,50.84
2018-11-06T04:48:15.224Z,50.74
2018-11-06T04:49:16.178Z,50.84
2018-11-06T04:50:17.020Z,50.46
2018-11-06T04:51:18.038Z,50.46
2018-11-06T04:52:19.568Z,50.65
2018-11-06T04:53:20.790Z,50.56
2018-11-06T04:54:21.142Z,50.93
2018-11-06T04:55:22.395Z,50.74
2018-11-06T04:56:24.041Z,50.74
2018-11-06T04:57:24.392Z,50.74
2018-11-06T04:58:25.468Z,50.56
2018-11-06T04:59:26.267Z,50.84
2018-11-06T05:00:27.792Z,50.74
2018-11-06T05:01:28.878Z,50.74
2018-11-06T05:02:28.957Z,51.03
2018-11-06T05:03:30.037Z,50.93
2018-11-06T05:04:31.116Z,51.03
2018-11-06T05:05:31.931Z,50.65
2018-11-06T05:06:33.567Z,50.74
2018-11-06T05:07:33.645Z,50.84
2018-11-06T05:08:34.176Z,50.26
2018-11-06T05:09:34.971Z,50.84
2018-11-06T05:10:36.061Z,50.36
2018-11-06T05:11:36.457Z,50.65
2018-11-06T05:12:38.257Z,50.56
2018-11-06T05:13:38.623Z,50.56
2018-11-06T05:14:39.153Z,50.36
2018-11-06T05:15:40.022Z,50.65
2018-11-06T05:16:40.541Z,50.56
2018-11-06T05:17:40.896Z,50.74
2018-11-06T05:18:41.414Z,50.74
2018-11-06T05:19:41.938Z,50.84
2018-11-06T05:20:43.458Z,50.56
2018-11-06T05:21:43.550Z,50.93
2018-11-06T05:22:45.076Z,50.84
2018-11-06T05:23:45.596Z,50.74
2018-11-06T05:24:47.394Z,50.65
2018-11-06T05:25:48.285Z,50.74
2018-11-06T05:26:48.811Z,50.65
2018-11-06T05:27:49.608Z,50.93
2018-11-06T05:28:50.689Z,51.22
2018-11-06T05:29:51.779Z,51.22
2018-11-06T05:30:52.855Z,51.22
2018-11-06T05:31:52.931Z,51.61
2018-11-06T05:32:55.080Z,51.89
2018-11-06T05:33:55.838Z,51.89
2018-11-06T05:34:58.009Z,51.99
2018-11-06T05:36:09.842Z,52.06
2018-11-06T05:37:11.929Z,51.97
2018-11-06T05:38:12.004Z,52.15
2018-11-06T05:39:13.814Z,52.15
2018-11-06T05:40:14.316Z,52.25
2018-11-06T05:41:15.126Z,51.99
2018-11-06T05:42:15.920Z,52.56
2018-11-06T05:43:16.717Z,52.09
2018-11-06T05:44:17.798Z,51.97
2018-11-06T05:45:18.376Z,52.06
2018-11-06T05:46:19.186Z,51.99
2018-11-06T05:47:20.442Z,51.99
2018-11-06T05:48:20.961Z,52.09
2018-11-06T05:49:21.506Z,51.99
2018-11-06T05:50:22.624Z,51.99
2018-11-06T05:51:23.701Z,52.09
2018-11-06T05:52:24.781Z,52.37
2018-11-06T05:53:25.590Z,52.18
2018-11-06T05:54:26.505Z,52.25
2018-11-06T05:55:27.584Z,52.28
2018-11-06T05:56:28.108Z,52.25
2018-11-06T05:57:28.388Z,52.37
2018-11-06T05:58:29.191Z,52.37
2018-11-06T05:59:30.436Z,52.56
2018-11-06T06:00:32.996Z,52.56
2018-11-06T06:01:33.635Z,52.37
2018-11-06T06:02:34.160Z,52.66
2018-11-06T06:03:34.683Z,52.44
2018-11-06T06:04:36.210Z,52.28
2018-11-06T06:05:36.567Z,52.47
2018-11-06T06:06:36.812Z,52.28
2018-11-06T06:07:37.516Z,52.09
2018-11-06T06:08:38.605Z,52.09
2018-11-06T06:09:39.410Z,51.87
2018-11-06T06:10:40.769Z,52.09
2018-11-06T06:11:41.130Z,51.99
2018-11-06T06:12:42.208Z,51.89
2018-11-06T06:13:43.007Z,51.79
2018-11-06T06:14:43.807Z,51.89
2018-11-06T06:15:45.164Z,51.61
2018-11-06T06:16:45.863Z,51.61
2018-11-06T06:17:46.122Z,51.7
2018-11-06T06:18:46.642Z,51.79
2018-11-06T06:19:47.444Z,51.7
2018-11-06T06:20:48.244Z,51.89
2018-11-06T06:21:49.323Z,51.51
2018-11-06T06:22:50.408Z,51.7
2018-11-06T06:23:51.211Z,51.61
2018-11-06T06:24:52.290Z,51.13
2018-11-06T06:25:53.537Z,51.13
2018-11-06T06:26:55.060Z,51.03
2018-11-06T06:27:55.879Z,50.93
2018-11-06T06:28:57.400Z,51.22
2018-11-06T06:29:58.204Z,50.87
2018-11-06T06:30:58.733Z,50.67
2018-11-06T06:32:00.091Z,50.48
2018-11-06T06:33:01.446Z,50.58
2018-11-06T06:34:02.250Z,50.58
2018-11-06T06:35:03.434Z,50.58
2018-11-06T06:36:04.429Z,50.96
2018-11-06T06:37:05.234Z,50.67
2018-11-06T06:38:06.768Z,50.87
2018-11-06T06:39:07.294Z,50.77
2018-11-06T06:40:07.990Z,51.06
2018-11-06T06:41:09.487Z,51.06
2018-11-06T06:42:09.575Z,51.44
2018-11-06T06:43:10.656Z,50.67
2018-11-06T06:44:11.305Z,50.87
2018-11-06T06:45:11.837Z,50.96
2018-11-06T06:46:12.734Z,50.38
2018-11-06T06:47:13.309Z,50.87
2018-11-06T06:48:14.569Z,50.96
2018-11-06T06:49:15.652Z,50.77
2018-11-06T06:50:16.015Z,50.77
2018-11-06T06:51:17.375Z,50.77
2018-11-06T06:52:17.764Z,50.67
2018-11-06T06:53:17.829Z,50.2
2018-11-06T06:54:19.764Z,50.1
2018-11-06T06:55:20.591Z,49.93
2018-11-06T06:56:21.245Z,49.71
2018-11-06T06:57:22.770Z,49.62
2018-11-06T06:58:23.447Z,49.52
2018-11-06T06:59:23.972Z,49.52
2018-11-06T07:00:24.612Z,49.36
2018-11-06T07:01:25.258Z,49.45
2018-11-06T07:02:26.081Z,49.07
2018-11-06T07:03:26.842Z,49.55
2018-11-06T07:04:27.743Z,49.74
2018-11-06T07:05:28.332Z,49.55
2018-11-06T07:06:29.267Z,49.36
2018-11-06T07:07:29.890Z,49.19
2018-11-06T07:08:31.086Z,48.71
2018-11-06T07:09:31.201Z,49
2018-11-06T07:10:32.006Z,48.71
2018-11-06T07:11:32.535Z,48.71
2018-11-06T07:12:33.634Z,48.33
2018-11-06T07:13:34.160Z,48.61
2018-11-06T07:14:34.961Z,48.8
2018-11-06T07:15:35.599Z,48.52
2018-11-06T07:16:36.141Z,48.33
2018-11-06T07:17:36.666Z,48.44
2018-11-06T07:18:38.161Z,48.35
2018-11-06T07:19:38.556Z,48.16
2018-11-06T07:20:39.638Z,47.51
2018-11-06T07:21:40.444Z,47.22
2018-11-06T07:22:41.247Z,47.13
2018-11-06T07:23:42.334Z,46.74
2018-11-06T07:24:43.142Z,46.28
2018-11-06T07:25:43.782Z,46
2018-11-06T07:26:44.590Z,45.61
2018-11-06T07:27:45.953Z,45.81
2018-11-06T07:28:46.968Z,45.92
2018-11-06T07:29:47.976Z,45.71
2018-11-06T07:30:48.707Z,45.52
2018-11-06T07:31:49.415Z,45.35
2018-11-06T07:32:49.947Z,45.15
2018-11-06T07:33:51.036Z,44.79
2018-11-06T07:34:53.327Z,44.51
2018-11-06T07:35:54.231Z,43.74
2018-11-06T07:36:55.395Z,42.5
2018-11-06T07:37:56.140Z,41.86
2018-11-06T07:38:57.402Z,41.59
2018-11-06T07:39:57.488Z,42.36
2018-11-06T07:40:58.570Z,42.63
2018-11-06T07:41:59.006Z,42.8
2018-11-06T07:43:00.110Z,43.08
2018-11-06T07:44:01.199Z,43.76
2018-11-06T07:45:02.571Z,43.76
2018-11-06T07:46:03.113Z,43.93
2018-11-06T07:47:04.370Z,44.41
2018-11-06T07:48:05.173Z,44.7
2018-11-06T07:49:06.303Z,44.68
2018-11-06T07:50:07.153Z,44.96
2018-11-06T07:51:07.700Z,45.18
2018-11-06T07:52:08.629Z,45.35
2018-11-06T07:53:09.166Z,45.15
2018-11-06T07:54:10.247Z,44.48
2018-11-06T07:55:10.778Z,44.38
2018-11-06T07:56:12.507Z,44.41
2018-11-06T07:57:13.849Z,44.22
2018-11-06T07:58:14.662Z,43.74
2018-11-06T07:59:15.375Z,44.79
2018-11-06T08:00:16.463Z,44.02
2018-11-06T08:01:17.113Z,43.74
2018-11-06T08:02:17.922Z,43.76
2018-11-06T08:03:19.008Z,43.85
2018-11-06T08:04:20.470Z,43.95
2018-11-06T08:05:21.099Z,43.85
2018-11-06T08:06:21.767Z,43.66
2018-11-06T08:07:21.661Z,43.28
2018-11-06T08:08:22.129Z,43.08
2018-11-06T08:09:23.620Z,43.08
2018-11-06T08:10:24.102Z,43.18
2018-11-06T08:11:24.476Z,43.76
2018-11-06T08:12:25.562Z,43.08
2018-11-06T08:13:26.101Z,43.18
2018-11-06T08:14:26.944Z,43.18
2018-11-06T08:15:27.463Z,43.18
2018-11-06T08:16:28.561Z,42.99
2018-11-06T08:17:28.655Z,43.28
2018-11-06T08:18:30.019Z,43.28
2018-11-06T08:19:31.445Z,43.18
2018-11-06T08:20:32.246Z,43.11
2018-11-06T08:21:32.514Z,43.3
2018-11-06T08:22:33.318Z,43.11
2018-11-06T08:23:33.884Z,42.53
2018-11-06T08:24:34.845Z,42.53
2018-11-06T08:25:35.662Z,42.72
2018-11-06T08:26:36.472Z,42.72
2018-11-06T08:27:38.342Z,42.91
2018-11-06T08:28:38.555Z,42.82
2018-11-06T08:29:39.101Z,42.82
2018-11-06T08:30:41.030Z,42.91
2018-11-06T08:31:43.482Z,43.11
2018-11-06T08:32:45.373Z,43.78
2018-11-06T08:33:44.540Z,43.08
2018-11-06T08:34:46.038Z,43.76
2018-11-06T08:35:46.604Z,43.85
2018-11-06T08:36:48.701Z,43.08
2018-11-06T08:37:48.568Z,43.85
2018-11-06T08:38:49.656Z,43.95
2018-11-06T08:39:50.480Z,43.85
2018-11-06T08:40:50.837Z,43.85
2018-11-06T08:41:51.481Z,43.76
2018-11-06T08:42:52.293Z,43.85
2018-11-06T08:43:53.795Z,43.88
2018-11-06T08:44:54.253Z,43.88
2018-11-06T08:45:55.960Z,43.88
2018-11-06T08:46:55.740Z,43.49
2018-11-06T08:47:57.070Z,43.88
2018-11-06T08:48:58.931Z,44.17
2018-11-06T08:49:58.591Z,43.78
2018-11-06T08:50:59.004Z,43.78
2018-11-06T08:51:59.536Z,43.88
2018-11-06T08:52:59.621Z,43.68
2018-11-06T08:54:00.993Z,44.35
2018-11-06T08:55:01.528Z,43.78
2018-11-06T08:56:02.890Z,43.88
2018-11-06T08:57:03.420Z,42.82
2018-11-06T08:58:04.509Z,43.2
2018-11-06T08:59:04.764Z,43.13
2018-11-06T09:00:05.340Z,43.8
2018-11-06T09:01:06.427Z,43.99
2018-11-06T09:02:07.683Z,43.03
2018-11-06T09:03:08.218Z,43.32
2018-11-06T09:04:09.317Z,43.23
2018-11-06T09:05:10.127Z,42.86
2018-11-06T09:06:11.494Z,42.28
2018-11-06T09:07:12.591Z,41.32
2018-11-06T09:08:13.405Z,41.71
2018-11-06T09:09:14.216Z,41.92
2018-11-06T09:10:15.035Z,41.44
2018-11-06T09:11:16.122Z,40.86
2018-11-06T09:12:16.936Z,40.47
2018-11-06T09:13:18.035Z,39.7
2018-11-06T09:14:18.130Z,39.89
2018-11-06T09:15:18.660Z,39.7
2018-11-06T09:16:19.471Z,40.37
2018-11-06T09:17:20.010Z,39.89
2018-11-06T09:18:21.095Z,39.79
2018-11-06T09:19:22.346Z,39.79
2018-11-06T09:20:23.363Z,40.09
2018-11-06T09:21:23.889Z,40.47
2018-11-06T09:22:24.811Z,40.47
2018-11-06T09:23:24.899Z,39.34
2018-11-06T09:24:26.004Z,40.01
2018-11-06T09:25:26.648Z,40.01
2018-11-06T09:26:27.180Z,39.82
2018-11-06T09:27:27.991Z,39.91
2018-11-06T09:28:29.357Z,39.16
2018-11-06T09:29:30.446Z,39.54
2018-11-06T09:30:31.228Z,38.21
2018-11-06T09:31:32.601Z,37.35
2018-11-06T09:32:32.852Z,36.96
2018-11-06T09:33:34.388Z,37.37
2018-11-06T09:34:35.481Z,37.46
2018-11-06T09:35:36.293Z,36.3
2018-11-06T09:36:36.828Z,36.3
2018-11-06T09:37:37.921Z,36.21
2018-11-06T09:38:40.518Z,36.03
2018-11-06T09:39:40.467Z,36.82
2018-11-06T09:40:41.043Z,36.34
2018-11-06T09:41:42.139Z,36.07
2018-11-06T09:42:42.227Z,35.29
2018-11-06T09:43:43.321Z,35.02
2018-11-06T09:44:43.855Z,34.13
2018-11-06T09:45:44.951Z,34.23
2018-11-06T09:46:46.043Z,34.23
2018-11-06T09:47:46.576Z,34.42
2018-11-06T09:48:48.085Z,34.04
2018-11-06T09:49:48.338Z,34.42
2018-11-06T09:50:48.909Z,34.23
2018-11-06T09:51:49.655Z,34.13
2018-11-06T09:52:50.160Z,34.31
2018-11-06T09:53:50.808Z,35.26
2018-11-06T09:54:51.625Z,35.92
2018-11-06T09:55:52.434Z,36.21
2018-11-06T09:56:53.804Z,36.59
2018-11-06T09:57:53.899Z,36.88
2018-11-06T09:58:55.433Z,36.98
2018-11-06T09:59:56.539Z,37.27
2018-11-06T10:00:57.157Z,37.17
2018-11-06T10:01:57.696Z,36.79
2018-11-06T10:02:58.544Z,36.88
2018-11-06T10:03:59.638Z,36.98
2018-11-06T10:05:00.768Z,36.01
2018-11-06T10:06:02.002Z,36.61
2018-11-06T10:07:04.913Z,36.22
2018-11-06T10:07:14.321Z,36.22
2018-11-06T10:08:14.685Z,35.94
2018-11-06T10:09:16.600Z,35.28
2018-11-06T10:10:16.917Z,34.79
2018-11-06T10:11:18.011Z,34.91
2018-11-06T10:12:18.913Z,35.31
2018-11-06T10:13:19.453Z,34.05
2018-11-06T10:14:20.554Z,33.57
2018-11-06T10:15:20.649Z,32.81
2018-11-06T10:16:21.752Z,32.06
2018-11-06T10:17:22.845Z,31.46
2018-11-06T10:18:23.844Z,31.47
2018-11-06T10:19:24.941Z,30.62
2018-11-06T10:20:26.314Z,30.52
2018-11-06T10:21:27.557Z,30.44
2018-11-06T10:22:27.820Z,30.73
2018-11-06T10:23:29.477Z,29.94
2018-11-06T10:24:29.296Z,30.24
2018-11-06T10:25:29.852Z,31.41
2018-11-06T10:26:30.922Z,30.92
2018-11-06T10:27:32.104Z,30.05
2018-11-06T10:28:32.940Z,29.47
2018-11-06T10:29:33.765Z,29.58
2018-11-06T10:30:34.521Z,29.19
2018-11-06T10:31:35.283Z,29.5
2018-11-06T10:32:35.656Z,30.09
2018-11-06T10:33:38.732Z,28.64
2018-11-06T10:34:38.572Z,28.65
2018-11-06T10:35:39.231Z,28.75
2018-11-06T10:36:39.601Z,27.69
2018-11-06T10:37:40.865Z,28.28
2018-11-06T10:38:41.520Z,28.55
2018-11-06T10:39:42.908Z,27.87
2018-11-06T10:40:43.454Z,28.15
2018-11-06T10:41:43.727Z,29.01
2018-11-06T10:42:44.819Z,29
2018-11-06T10:43:46.457Z,28.72
2018-11-06T10:44:46.483Z,28.81
2018-11-06T10:45:47.020Z,28.81
2018-11-06T10:46:47.840Z,28.44
2018-11-06T10:47:48.383Z,27.96
2018-11-06T10:48:49.239Z,28.26
2018-11-06T10:49:50.669Z,28.17
2018-11-06T10:50:51.048Z,28.65
2018-11-06T10:51:51.619Z,28.07
2018-11-06T10:52:52.320Z,28.17
2018-11-06T10:53:54.033Z,28.26
2018-11-06T10:54:55.022Z,27.39
2018-11-06T10:55:55.490Z,26.82
2018-11-06T10:56:56.860Z,26.82
2018-11-06T10:57:57.587Z,27.79
2018-11-06T10:58:59.616Z,26.92
2018-11-06T10:59:59.363Z,27.01
2018-11-06T11:01:00.645Z,26.82
2018-11-06T11:02:03.198Z,26.92
2018-11-06T11:02:15.069Z,26.82
2018-11-06T11:02:26.961Z,26.92
2018-11-06T11:02:38.980Z,26.92
2018-11-06T11:03:39.093Z,26.54
2018-11-06T11:03:52.382Z,26.34
2018-11-06T11:04:07.052Z,26.43
2018-11-06T11:04:20.135Z,26.62
2018-11-06T11:05:20.050Z,26.62
2018-11-06T11:06:20.670Z,28.94
2018-11-06T11:07:22.117Z,28.26
2018-11-06T11:08:23.274Z,27.98
2018-11-06T11:09:24.540Z,27.68
2018-11-06T11:10:25.580Z,27.19
2018-11-06T11:11:25.963Z,27.68
2018-11-06T11:12:28.756Z,28.07
2018-11-06T11:13:29.227Z,28.07
2018-11-06T11:14:30.241Z,27.37
2018-11-06T11:15:30.539Z,27.47
2018-11-06T11:16:31.077Z,28.15
2018-11-06T11:17:32.510Z,28.25
2018-11-06T11:18:33.178Z,28.45
2018-11-06T11:19:36.462Z,27.29
2018-11-06T11:20:35.798Z,27.87
2018-11-06T11:21:36.849Z,28.55
2018-11-06T11:22:40.772Z,28.25
2018-11-06T11:23:39.175Z,28.64
2018-11-06T11:24:40.995Z,28.44
2018-11-06T11:25:43.187Z,28.44
2018-11-06T11:26:43.316Z,29.22
2018-11-06T11:27:44.408Z,29.01
2018-11-06T11:28:45.317Z,28.15
2018-11-06T11:29:46.155Z,27.86
2018-11-06T11:30:47.603Z,27.76
2018-11-06T11:31:48.722Z,27.87
2018-11-06T11:32:49.754Z,28.17
2018-11-06T11:33:50.525Z,27.58
2018-11-06T11:34:50.767Z,27.19
2018-11-06T11:35:51.286Z,27.87
2018-11-06T11:36:51.940Z,27.87
2018-11-06T11:37:53.936Z,27.5
2018-11-06T11:38:57.282Z,27
2018-11-06T11:39:59.870Z,26.71
2018-11-06T11:40:09.445Z,26.89
2018-11-06T11:41:08.713Z,27.57
2018-11-06T11:42:10.032Z,27.78
2018-11-06T11:43:10.847Z,27.87
2018-11-06T11:44:11.665Z,28.07
2018-11-06T11:45:13.352Z,28.07
2018-11-06T11:46:13.728Z,28.15
2018-11-06T11:47:14.391Z,28.83
2018-11-06T11:48:15.487Z,27.86
2018-11-06T11:49:15.305Z,28.05
2018-11-06T11:50:16.415Z,27.18
2018-11-06T11:51:17.491Z,27.39
2018-11-06T11:52:17.862Z,27.67
2018-11-06T11:53:18.680Z,26.79
2018-11-06T11:54:19.225Z,27.18
2018-11-06T11:55:20.037Z,27.67
2018-11-06T11:56:20.856Z,27.96
2018-11-06T11:57:21.673Z,28.14
2018-11-06T11:58:23.333Z,28.43
2018-11-06T11:59:24.373Z,28.7
2018-11-06T12:00:25.189Z,28.8
2018-11-06T12:01:26.293Z,29.19
2018-11-06T12:02:26.833Z,29.58
2018-11-06T12:03:27.901Z,30.07
2018-11-06T12:04:29.001Z,29.58
2018-11-06T12:05:29.944Z,29.1
2018-11-06T12:06:30.387Z,28.98
2018-11-06T12:07:31.474Z,29.57
2018-11-06T12:08:32.118Z,29.47
2018-11-06T12:09:35.492Z,30.32
2018-11-06T12:10:34.262Z,30.04
2018-11-06T12:11:34.822Z,30.23
2018-11-06T12:12:35.746Z,29.46
2018-11-06T12:13:36.267Z,30.04
2018-11-06T12:14:36.803Z,30.23
2018-11-06T12:15:37.623Z,30.6
2018-11-06T12:16:38.722Z,30.42
2018-11-06T12:17:40.259Z,30.52
2018-11-06T12:18:41.409Z,30.52
2018-11-06T12:19:42.216Z,30.41
2018-11-06T12:20:43.315Z,30.6
2018-11-06T12:21:44.145Z,30.69
2018-11-06T12:22:44.677Z,30.99
2018-11-06T12:23:45.217Z,30.79
2018-11-06T12:24:46.354Z,31.47
2018-11-06T12:25:46.370Z,31.84
2018-11-06T12:26:46.724Z,31.84
2018-11-06T12:27:47.261Z,32.02
2018-11-06T12:28:48.353Z,31.54
2018-11-06T12:29:49.001Z,32.31
2018-11-06T12:30:49.814Z,32.6
2018-11-06T12:31:51.641Z,32.7
2018-11-06T12:32:52.572Z,32.7
2018-11-06T12:33:53.387Z,32.6
2018-11-06T12:34:53.474Z,32.21
2018-11-06T12:35:54.008Z,33.09
2018-11-06T12:36:55.383Z,32.89
2018-11-06T12:37:55.768Z,32.7
2018-11-06T12:38:57.139Z,33.18
2018-11-06T12:39:57.530Z,34.04
2018-11-06T12:40:58.340Z,33.65
2018-11-06T12:41:59.331Z,32.59
2018-11-06T12:42:59.909Z,32.49
2018-11-06T12:44:01.119Z,32.78
2018-11-06T12:45:01.932Z,32.49
2018-11-06T12:46:02.755Z,33.55
2018-11-06T12:47:03.567Z,32.86
2018-11-06T12:48:04.108Z,33.15
2018-11-06T12:49:05.210Z,33.05
2018-11-06T12:50:07.600Z,33.73
2018-11-06T12:50:19.749Z,33.63
2018-11-06T12:51:18.625Z,33.92
2018-11-06T12:52:19.451Z,33.73
2018-11-06T12:53:20.547Z,33.92
2018-11-06T12:54:24.041Z,33.92
2018-11-06T12:54:34.415Z,33.83
2018-11-06T12:55:35.201Z,34.21
2018-11-06T12:56:37.976Z,34.02
2018-11-06T12:56:49.176Z,33.72